Time;durP1;ratioP1;P1;durP2;ratioP2;P2;SDS_P1;SDS_P2;PMS_P1;PMS_P2;Temp;Humidity;BMP_temperature;BMP_pressure;BME280_temperature;BME280_humidity;BME280_pressure;Samples;Min_cycle;Max_cycle;Signal;HPM_P1;HPM_P2
2021/08/23 00:00:01;;;;;;;13.77;6.18;;;13.90;69.70;;;;;;4874229;29;20025;-69
2021/08/23 00:02:28;;;;;;;13.25;7.20;;;13.90;69.80;;;;;;4871836;29;20049;-69
2021/08/23 00:04:54;;;;;;;14.68;7.38;;;13.90;69.90;;;;;;4870313;29;20022;-69
2021/08/23 00:07:21;;;;;;;11.77;8.38;;;13.90;70.00;;;;;;4873141;29;20029;-68
2021/08/23 00:09:47;;;;;;;13.23;7.40;;;13.90;70.10;;;;;;4872976;29;20528;-69
2021/08/23 00:12:14;;;;;;;15.20;8.70;;;13.90;70.20;;;;;;4874941;29;20025;-69
2021/08/23 00:14:40;;;;;;;11.10;8.60;;;13.90;70.20;;;;;;4870711;29;20033;-69
2021/08/23 00:17:07;;;;;;;12.50;8.18;;;13.90;70.20;;;;;;4872361;29;20021;-69
2021/08/23 00:19:33;;;;;;;16.42;8.85;;;13.90;70.30;;;;;;4874831;29;20054;-69
2021/08/23 00:22:29;;;;;;;12.18;8.27;;;13.80;70.20;;;;;;4873383;29;20010;-69
2021/08/23 00:24:56;;;;;;;13.95;9.68;;;13.80;70.30;;;;;;4873659;29;20032;-69
2021/08/23 00:27:24;;;;;;;13.15;8.25;;;13.80;70.40;;;;;;4873245;29;20489;-68
2021/08/23 00:29:50;;;;;;;13.10;8.30;;;13.80;70.50;;;;;;4856355;29;20504;-69
2021/08/23 00:32:17;;;;;;;12.13;7.78;;;13.80;70.60;;;;;;4873613;29;20032;-69
2021/08/23 00:34:43;;;;;;;14.10;7.95;;;13.80;70.70;;;;;;4870542;29;20036;-69
2021/08/23 00:37:14;;;;;;;14.38;8.45;;;13.80;70.80;;;;;;4872329;29;20505;-69
2021/08/23 00:39:41;;;;;;;10.48;7.00;;;13.80;70.90;;;;;;4873591;29;20120;-68
2021/08/23 00:42:08;;;;;;;13.43;7.30;;;13.80;71.00;;;;;;4869892;29;20087;-68
2021/08/23 00:44:36;;;;;;;14.82;7.90;;;13.80;71.10;;;;;;4873716;29;20025;-68
2021/08/23 00:47:07;;;;;;;17.10;6.55;;;13.80;71.20;;;;;;4873403;29;20097;-68
2021/08/23 00:49:34;;;;;;;16.30;6.15;;;13.70;71.40;;;;;;4870534;29;20041;-68
2021/08/23 00:52:02;;;;;;;12.35;7.65;;;13.80;71.60;;;;;;4871561;29;20448;-68
2021/08/23 00:54:28;;;;;;;15.75;6.07;;;13.70;71.70;;;;;;4871948;29;20029;-68
2021/08/23 00:56:55;;;;;;;8.73;6.50;;;13.70;71.80;;;;;;4871752;29;20027;-68
2021/08/23 00:59:26;;;;;;;11.18;7.35;;;13.70;71.90;;;;;;4873550;29;20064;-68
2021/08/23 01:02:02;;;;;;;13.18;7.10;;;13.70;71.90;;;;;;4869411;29;20120;-68
2021/08/23 01:04:54;;;;;;;18.27;8.05;;;13.70;71.80;;;;;;4874004;29;20469;-69
2021/08/23 01:07:24;;;;;;;8.90;6.15;;;13.70;71.70;;;;;;4874149;29;20033;-68
2021/08/23 01:09:57;;;;;;;15.88;7.50;;;13.70;71.50;;;;;;4873982;29;20054;-69
2021/08/23 01:12:26;;;;;;;13.35;6.18;;;13.70;71.40;;;;;;4872373;29;20017;-69
2021/08/23 01:14:53;;;;;;;10.23;6.18;;;13.70;71.20;;;;;;4868756;29;20112;-69
2021/08/23 01:17:19;;;;;;;9.73;6.72;;;13.70;71.10;;;;;;4868856;29;20145;-68
2021/08/23 01:19:53;;;;;;;10.30;5.72;;;13.60;70.90;;;;;;4872137;29;20053;-68
2021/08/23 01:22:24;;;;;;;7.65;5.18;;;13.60;70.80;;;;;;4873829;29;20057;-68
2021/08/23 01:24:53;;;;;;;8.50;5.50;;;13.60;70.70;;;;;;4873069;29;20035;-68
2021/08/23 01:27:22;;;;;;;7.72;4.70;;;13.60;70.60;;;;;;4873300;29;20029;-69
2021/08/23 01:30:02;;;;;;;6.45;4.75;;;13.60;70.50;;;;;;4872421;29;20090;-70
2021/08/23 01:32:29;;;;;;;7.78;4.78;;;13.60;70.40;;;;;;4871432;29;20037;-69
2021/08/23 01:34:57;;;;;;;7.03;4.35;;;13.60;70.30;;;;;;4876700;29;20104;-69
2021/08/23 01:37:24;;;;;;;7.50;4.90;;;13.50;70.10;;;;;;4874584;29;20032;-70
2021/08/23 01:39:52;;;;;;;8.60;4.25;;;13.50;70.00;;;;;;4872966;29;20021;-69
2021/08/23 01:42:18;;;;;;;4.70;4.07;;;13.50;69.90;;;;;;4878927;29;20025;-70
2021/08/23 01:44:46;;;;;;;5.90;3.90;;;13.50;69.90;;;;;;4874467;29;20025;-70
2021/08/23 01:47:13;;;;;;;9.05;4.20;;;13.50;69.80;;;;;;4873169;29;20021;-68
2021/08/23 01:49:40;;;;;;;7.03;4.47;;;13.50;69.70;;;;;;4873974;29;20078;-69
2021/08/23 01:52:11;;;;;;;8.05;4.88;;;13.40;69.70;;;;;;4877150;29;20474;-69
2021/08/23 01:54:41;;;;;;;7.68;3.85;;;13.40;69.60;;;;;;4878134;29;20040;-70
2021/08/23 01:57:09;;;;;;;6.63;4.65;;;13.40;69.50;;;;;;4877771;29;20025;-68
2021/08/23 01:59:35;;;;;;;7.25;3.70;;;13.40;69.50;;;;;;4875347;29;20108;-68
2021/08/23 02:02:03;;;;;;;8.85;4.63;;;13.40;69.40;;;;;;4873686;29;20068;-68
2021/08/23 02:04:29;;;;;;;5.88;4.65;;;13.40;69.40;;;;;;4878820;29;20492;-69
2021/08/23 02:06:56;;;;;;;8.55;4.53;;;13.40;69.40;;;;;;4875422;29;20025;-68
2021/08/23 02:09:22;;;;;;;9.27;4.38;;;13.40;69.30;;;;;;4878726;29;20040;-68
2021/08/23 02:11:49;;;;;;;6.47;4.07;;;13.40;69.30;;;;;;4873478;29;20114;-68
2021/08/23 02:14:16;;;;;;;8.48;4.40;;;13.30;69.30;;;;;;4876213;29;20032;-68
2021/08/23 02:16:42;;;;;;;10.68;5.57;;;13.30;69.40;;;;;;4877657;29;20449;-68
2021/08/23 02:19:09;;;;;;;8.48;4.75;;;13.30;69.40;;;;;;4875764;29;20017;-68
2021/08/23 02:21:53;;;;;;;10.43;6.05;;;13.30;69.50;;;;;;4860032;29;20516;-68
2021/08/23 02:24:21;;;;;;;7.68;4.78;;;13.30;69.50;;;;;;4873286;29;20121;-68
2021/08/23 02:26:48;;;;;;;6.68;4.15;;;13.30;69.50;;;;;;4876392;29;20648;-68
2021/08/23 02:29:15;;;;;;;5.78;3.58;;;13.30;69.60;;;;;;4873572;29;20101;-69
2021/08/23 02:31:41;;;;;;;7.72;3.67;;;13.30;69.50;;;;;;4877468;29;20173;-68
2021/08/23 02:34:08;;;;;;;8.35;4.80;;;13.30;69.50;;;;;;4878236;29;20020;-69
2021/08/23 02:36:35;;;;;;;5.22;3.22;;;13.20;69.40;;;;;;4873650;29;20021;-68
2021/08/23 02:39:02;;;;;;;4.57;3.38;;;13.20;69.40;;;;;;4875936;29;20036;-68
2021/08/23 02:41:28;;;;;;;4.60;3.58;;;13.20;69.30;;;;;;4875117;29;20386;-68
2021/08/23 02:43:54;;;;;;;5.03;3.80;;;13.20;69.20;;;;;;4873006;29;20083;-68
2021/08/23 02:46:21;;;;;;;5.53;3.05;;;13.20;69.20;;;;;;4874088;29;20025;-68
2021/08/23 02:48:48;;;;;;;4.70;3.75;;;13.20;69.10;;;;;;4856153;29;20021;-69
2021/08/23 02:51:14;;;;;;;5.90;3.13;;;13.20;69.10;;;;;;4878435;29;20036;-69
2021/08/23 02:53:41;;;;;;;4.07;3.63;;;13.20;69.10;;;;;;4879439;29;20025;-68
2021/08/23 02:56:08;;;;;;;4.43;3.47;;;13.10;69.00;;;;;;4875711;29;20045;-68
2021/08/23 02:58:35;;;;;;;3.83;2.75;;;13.10;69.00;;;;;;4873302;29;20026;-68
2021/08/23 03:01:01;;;;;;;5.85;3.50;;;13.20;69.10;;;;;;4875055;29;20059;-68
2021/08/23 03:03:28;;;;;;;8.80;3.65;;;13.10;69.70;;;;;;4874968;29;20040;-68
2021/08/23 03:05:55;;;;;;;4.22;2.58;;;13.10;68.90;;;;;;4875083;29;20021;-68
2021/08/23 03:08:21;;;;;;;7.80;3.20;;;13.10;69.00;;;;;;4875038;29;20025;-68
2021/08/23 03:10:51;;;;;;;10.07;7.10;;;13.10;68.90;;;;;;4875485;29;20116;-67
2021/08/23 03:13:18;;;;;;;11.50;8.07;;;13.10;68.90;;;;;;4874988;29;20472;-69
2021/08/23 03:15:45;;;;;;;8.40;6.15;;;13.10;68.90;;;;;;4874927;29;20072;-69
2021/08/23 03:18:11;;;;;;;9.95;5.00;;;13.10;68.80;;;;;;4874566;29;20024;-68
2021/08/23 03:20:38;;;;;;;6.95;4.03;;;13.00;68.80;;;;;;4873277;29;20047;-68
2021/08/23 03:23:04;;;;;;;5.22;3.97;;;13.00;68.80;;;;;;4875889;29;20104;-68
2021/08/23 03:25:31;;;;;;;6.13;2.85;;;13.00;68.70;;;;;;4874340;29;20041;-67
2021/08/23 03:27:57;;;;;;;4.07;3.20;;;13.00;68.70;;;;;;4875511;29;20019;-68
2021/08/23 03:30:24;;;;;;;4.57;3.05;;;13.00;68.70;;;;;;4876321;29;20108;-68
2021/08/23 03:32:50;;;;;;;5.82;2.55;;;13.00;68.70;;;;;;4874281;29;20021;-68
2021/08/23 03:35:17;;;;;;;4.43;2.50;;;13.00;68.60;;;;;;4875559;29;20029;-68
2021/08/23 03:37:45;;;;;;;3.13;2.45;;;13.00;68.50;;;;;;4874599;29;20029;-68
2021/08/23 03:40:12;;;;;;;4.10;2.17;;;12.90;68.40;;;;;;4874372;29;20494;-68
2021/08/23 03:42:38;;;;;;;6.07;2.47;;;12.90;68.40;;;;;;4871406;29;20393;-68
2021/08/23 03:45:05;;;;;;;3.65;2.92;;;12.90;68.30;;;;;;4875559;29;20031;-69
2021/08/23 03:47:32;;;;;;;4.30;2.33;;;12.90;68.30;;;;;;4874384;29;20055;-68
2021/08/23 03:49:59;;;;;;;2.78;2.53;;;12.90;68.30;;;;;;4873267;29;20149;-70
2021/08/23 03:52:26;;;;;;;2.83;1.95;;;12.90;68.20;;;;;;4873983;29;20966;-68
2021/08/23 03:54:52;;;;;;;5.30;2.88;;;12.90;68.30;;;;;;4873296;29;20493;-69
2021/08/23 03:57:19;;;;;;;5.35;3.90;;;12.90;68.30;;;;;;4873586;29;20025;-69
2021/08/23 03:59:45;;;;;;;6.18;3.97;;;12.90;68.30;;;;;;4875871;29;20124;-69
2021/08/23 04:02:16;;;;;;;5.72;4.13;;;12.80;68.30;;;;;;4871277;29;20037;-70
2021/08/23 04:04:43;;;;;;;4.25;3.08;;;12.80;68.40;;;;;;4873174;29;20047;-69
2021/08/23 04:07:09;;;;;;;4.90;2.95;;;12.80;68.50;;;;;;4874158;29;20365;-69
2021/08/23 04:09:36;;;;;;;3.88;2.50;;;12.80;68.50;;;;;;4877548;29;20386;-69
2021/08/23 04:12:02;;;;;;;2.67;2.30;;;12.80;68.50;;;;;;4858216;29;20030;-70
2021/08/23 04:14:29;;;;;;;3.55;2.38;;;12.80;68.50;;;;;;4868812;29;20086;-69
2021/08/23 04:16:55;;;;;;;4.25;3.38;;;12.80;68.60;;;;;;4875298;29;20032;-68
2021/08/23 04:19:25;;;;;;;13.15;9.77;;;12.70;68.50;;;;;;4871951;29;20040;-70
2021/08/23 04:21:52;;;;;;;10.27;7.32;;;12.70;68.60;;;;;;4871348;29;20034;-70
2021/08/23 04:24:19;;;;;;;7.25;5.78;;;12.70;68.70;;;;;;4871805;29;20021;-71
2021/08/23 04:26:45;;;;;;;5.80;4.47;;;12.70;68.60;;;;;;4874890;29;20034;-72
2021/08/23 04:29:13;;;;;;;4.72;3.55;;;12.70;68.60;;;;;;4874369;29;20017;-73
2021/08/23 04:31:40;;;;;;;6.95;3.40;;;12.70;68.70;;;;;;4874841;29;20110;-72
2021/08/23 04:34:06;;;;;;;3.58;2.97;;;12.70;68.60;;;;;;4875069;29;20028;-72
2021/08/23 04:36:33;;;;;;;2.70;2.30;;;12.70;68.70;;;;;;4874100;29;20028;-71
2021/08/23 04:38:59;;;;;;;3.85;2.60;;;12.70;68.70;;;;;;4873448;29;20070;-73
2021/08/23 04:41:26;;;;;;;7.03;2.30;;;12.70;68.70;;;;;;4872414;29;20031;-73
2021/08/23 04:43:52;;;;;;;2.47;2.28;;;12.70;68.80;;;;;;4857593;29;20602;-72
2021/08/23 04:46:20;;;;;;;5.55;2.70;;;12.70;68.80;;;;;;4871641;29;20453;-72
2021/08/23 04:48:47;;;;;;;5.55;2.97;;;12.60;68.80;;;;;;4877936;29;20423;-72
2021/08/23 04:51:13;;;;;;;2.95;2.08;;;12.60;68.80;;;;;;4866375;29;20068;-72
2021/08/23 04:53:39;;;;;;;5.05;1.83;;;12.60;68.80;;;;;;4857661;29;20496;-69
2021/08/23 04:56:16;;;;;;;5.13;2.45;;;12.60;68.90;;;;;;4871459;29;20032;-69
2021/08/23 04:58:43;;;;;;;5.22;2.55;;;12.60;68.90;;;;;;4870930;29;20512;-70
2021/08/23 05:01:10;;;;;;;3.40;2.63;;;12.60;68.90;;;;;;4872993;29;20129;-69
2021/08/23 05:03:37;;;;;;;3.42;2.80;;;12.60;69.00;;;;;;4875951;29;20077;-69
2021/08/23 05:06:03;;;;;;;3.08;2.67;;;12.60;69.00;;;;;;4878093;29;20489;-70
2021/08/23 05:08:30;;;;;;;3.17;2.15;;;12.60;69.00;;;;;;4872494;29;20417;-69
2021/08/23 05:10:57;;;;;;;7.22;2.47;;;12.60;69.10;;;;;;4875669;29;20068;-69
2021/08/23 05:13:23;;;;;;;4.43;2.42;;;12.50;69.10;;;;;;4878535;29;20025;-69
2021/08/23 05:15:50;;;;;;;3.63;2.72;;;12.50;69.00;;;;;;4877941;29;20018;-69
2021/08/23 05:18:16;;;;;;;5.70;2.85;;;12.50;69.00;;;;;;4860263;29;20025;-69
2021/08/23 05:20:43;;;;;;;6.32;2.95;;;12.50;68.90;;;;;;4877776;29;20536;-68
2021/08/23 05:23:09;;;;;;;6.57;3.28;;;12.50;69.00;;;;;;4876370;29;20028;-70
2021/08/23 05:25:37;;;;;;;5.22;3.30;;;12.50;69.00;;;;;;4877686;29;20029;-69
2021/08/23 05:28:05;;;;;;;6.22;3.58;;;12.50;69.00;;;;;;4873784;29;20048;-68
2021/08/23 05:30:32;;;;;;;6.68;4.60;;;12.50;69.10;;;;;;4877312;29;20123;-68
2021/08/23 05:32:59;;;;;;;4.45;3.83;;;12.50;69.20;;;;;;4876975;29;20073;-69
2021/08/23 05:35:26;;;;;;;6.65;5.13;;;12.50;69.20;;;;;;4874772;29;20053;-68
2021/08/23 05:37:52;;;;;;;8.63;5.68;;;12.40;69.10;;;;;;4881360;29;20084;-69
2021/08/23 05:40:30;;;;;;;10.65;7.07;;;12.40;69.30;;;;;;4877576;29;20020;-69
2021/08/23 05:42:57;;;;;;;10.35;9.32;;;12.40;69.30;;;;;;4873905;29;20112;-69
2021/08/23 05:45:24;;;;;;;9.70;8.60;;;12.40;69.30;;;;;;4877807;29;20077;-68
2021/08/23 05:47:51;;;;;;;10.50;8.75;;;12.40;69.40;;;;;;4874010;29;20025;-69
2021/08/23 05:50:17;;;;;;;11.40;8.73;;;12.40;69.40;;;;;;4873734;29;20038;-69
2021/08/23 05:52:44;;;;;;;11.10;8.85;;;12.40;69.40;;;;;;4875093;29;20025;-71
2021/08/23 05:55:11;;;;;;;9.63;8.60;;;12.40;69.40;;;;;;4877754;29;20017;-69
2021/08/23 05:57:37;;;;;;;10.43;7.57;;;12.40;69.40;;;;;;4876486;29;20033;-69
2021/08/23 06:00:06;;;;;;;10.63;7.38;;;12.40;69.50;;;;;;4874395;29;20125;-69
2021/08/23 06:02:33;;;;;;;10.63;6.55;;;12.40;69.60;;;;;;4875329;29;20432;-70
2021/08/23 06:05:00;;;;;;;11.15;6.38;;;12.40;69.60;;;;;;4877929;29;20024;-69
2021/08/23 06:07:26;;;;;;;12.82;6.18;;;12.40;69.60;;;;;;4853289;29;20535;-70
2021/08/23 06:09:53;;;;;;;8.70;5.57;;;12.40;69.80;;;;;;4872285;29;20035;-69
2021/08/23 06:12:19;;;;;;;13.55;5.68;;;12.40;69.90;;;;;;4877112;29;20095;-70
2021/08/23 06:14:46;;;;;;;14.18;6.40;;;12.40;69.90;;;;;;4879074;29;20459;-69
2021/08/23 06:17:12;;;;;;;17.02;7.03;;;12.40;70.10;;;;;;4870762;29;20132;-70
2021/08/23 06:19:39;;;;;;;13.45;6.85;;;12.40;70.20;;;;;;4877537;29;20028;-70
2021/08/23 06:22:05;;;;;;;12.00;7.10;;;12.40;70.30;;;;;;4874522;29;20036;-69
2021/08/23 06:24:31;;;;;;;17.45;7.28;;;12.40;70.40;;;;;;4877453;29;20033;-69
2021/08/23 06:26:58;;;;;;;14.20;6.10;;;12.40;70.50;;;;;;4875932;29;20427;-69
2021/08/23 06:29:24;;;;;;;15.18;6.82;;;12.40;70.60;;;;;;4872495;29;20045;-69
2021/08/23 06:31:51;;;;;;;11.50;7.07;;;12.40;70.80;;;;;;4876208;29;20030;-69
2021/08/23 06:34:18;;;;;;;12.43;7.78;;;12.40;71.00;;;;;;4877712;29;20484;-70
2021/08/23 06:36:45;;;;;;;18.38;8.50;;;12.50;71.20;;;;;;4876168;29;20025;-69
2021/08/23 06:39:12;;;;;;;21.30;9.70;;;12.50;71.30;;;;;;4872991;29;20032;-69
2021/08/23 06:41:39;;;;;;;20.90;10.80;;;12.50;71.40;;;;;;4875506;29;20029;-71
2021/08/23 06:44:05;;;;;;;15.70;9.32;;;12.50;71.60;;;;;;4872127;29;20496;-69
2021/08/23 06:46:32;;;;;;;12.15;8.15;;;12.50;71.70;;;;;;4873925;29;20056;-69
2021/08/23 06:49:00;;;;;;;13.15;9.05;;;12.50;71.90;;;;;;4879761;29;20453;-69
2021/08/23 06:51:27;;;;;;;15.45;7.93;;;12.60;72.10;;;;;;4873976;29;20048;-69
2021/08/23 06:53:53;;;;;;;12.45;7.65;;;12.60;72.40;;;;;;4876623;29;20032;-69
2021/08/23 06:56:21;;;;;;;13.60;8.32;;;12.60;72.60;;;;;;4875577;29;20045;-69
2021/08/23 06:58:47;;;;;;;14.32;6.95;;;12.60;72.80;;;;;;4877726;29;20448;-69
2021/08/23 07:01:15;;;;;;;13.57;8.13;;;12.70;73.00;;;;;;4872750;29;20033;-69
2021/08/23 07:03:41;;;;;;;19.10;7.97;;;12.70;73.10;;;;;;4876432;29;20132;-69
2021/08/23 07:06:08;;;;;;;17.42;8.90;;;12.70;73.20;;;;;;4874669;29;20032;-69
2021/08/23 07:08:34;;;;;;;19.67;7.30;;;12.70;73.40;;;;;;4873818;29;20213;-69
2021/08/23 07:11:01;;;;;;;12.23;7.13;;;12.80;73.50;;;;;;4875614;29;20093;-70
2021/08/23 07:13:29;;;;;;;14.50;7.03;;;12.80;73.70;;;;;;4875135;29;20036;-69
2021/08/23 07:15:57;;;;;;;10.25;6.43;;;12.90;73.90;;;;;;4874903;29;20022;-69
2021/08/23 07:18:23;;;;;;;16.55;8.95;;;12.90;74.10;;;;;;4875583;29;20112;-69
2021/08/23 07:20:53;;;;;;;15.55;7.03;;;12.90;74.20;;;;;;4879075;29;20082;-70
2021/08/23 07:23:20;;;;;;;18.40;7.40;;;13.00;74.50;;;;;;4874542;29;20025;-70
2021/08/23 07:25:47;;;;;;;18.45;8.52;;;13.00;74.70;;;;;;4874650;29;20029;-70
2021/08/23 07:28:13;;;;;;;14.57;7.68;;;13.10;74.90;;;;;;4871612;29;20052;-69
2021/08/23 07:30:41;;;;;;;11.55;6.80;;;13.10;75.10;;;;;;4875920;29;20067;-69
2021/08/23 07:33:07;;;;;;;14.60;7.60;;;13.10;75.30;;;;;;4877304;29;20025;-70
2021/08/23 07:35:34;;;;;;;17.35;7.00;;;13.20;75.60;;;;;;4870943;29;20548;-69
2021/08/23 07:38:00;;;;;;;15.63;7.53;;;13.20;75.70;;;;;;4877704;29;20021;-69
2021/08/23 07:40:27;;;;;;;10.55;7.32;;;13.20;75.90;;;;;;4874478;29;20021;-70
2021/08/23 07:42:54;;;;;;;17.38;8.77;;;13.30;76.10;;;;;;4875990;29;20059;-70
2021/08/23 07:45:21;;;;;;;21.33;9.02;;;13.30;76.10;;;;;;4876945;29;20048;-69
2021/08/23 07:47:48;;;;;;;20.85;10.45;;;13.30;76.30;;;;;;4873678;29;20440;-69
2021/08/23 07:50:16;;;;;;;28.33;11.98;;;13.40;76.40;;;;;;4873030;29;20033;-69
2021/08/23 07:52:42;;;;;;;31.83;12.35;;;13.40;76.50;;;;;;4876702;29;20025;-70
2021/08/23 07:55:10;;;;;;;36.35;12.15;;;13.50;76.70;;;;;;4876137;29;20038;-70
2021/08/23 07:57:44;;;;;;;24.85;11.63;;;13.50;76.90;;;;;;4875084;29;20037;-69
2021/08/23 08:00:16;;;;;;;23.52;10.30;;;13.50;76.90;;;;;;4876341;29;20055;-69
2021/08/23 08:02:43;;;;;;;18.95;11.07;;;13.60;77.80;;;;;;4858424;29;20054;-70
2021/08/23 08:05:12;;;;;;;22.55;11.73;;;13.60;77.20;;;;;;4854175;29;20033;-69
2021/08/23 08:07:39;;;;;;;21.70;11.35;;;13.70;77.30;;;;;;4855107;29;20108;-70
2021/08/23 08:10:07;;;;;;;21.05;11.38;;;13.70;77.40;;;;;;4855911;29;20413;-70
2021/08/23 08:12:34;;;;;;;26.73;11.98;;;13.70;77.50;;;;;;4849763;29;20030;-69
2021/08/23 08:15:01;;;;;;;21.30;11.43;;;13.80;77.50;;;;;;4852166;29;20552;-70
2021/08/23 08:17:27;;;;;;;28.08;11.88;;;13.80;77.60;;;;;;4853016;29;20481;-70
2021/08/23 08:19:54;;;;;;;26.60;12.38;;;13.90;77.70;;;;;;4858297;29;20769;-69
2021/08/23 08:22:21;;;;;;;30.40;13.45;;;13.90;77.70;;;;;;4854049;29;20082;-70
2021/08/23 08:24:48;;;;;;;24.00;12.85;;;14.00;77.80;;;;;;4851292;29;20108;-70
2021/08/23 08:27:15;;;;;;;33.47;14.43;;;14.00;77.80;;;;;;4853526;29;20040;-70
2021/08/23 08:29:42;;;;;;;26.55;12.25;;;14.00;77.80;;;;;;4851595;29;20382;-70
2021/08/23 08:32:08;;;;;;;26.58;14.02;;;14.10;77.90;;;;;;4852764;29;20049;-70
2021/08/23 08:34:35;;;;;;;27.30;12.73;;;14.10;78.00;;;;;;4853449;29;20045;-70
2021/08/23 08:37:03;;;;;;;23.20;13.32;;;14.20;78.10;;;;;;4853566;29;20533;-70
2021/08/23 08:39:29;;;;;;;23.80;13.35;;;14.20;78.30;;;;;;4838352;29;20443;-70
2021/08/23 08:41:56;;;;;;;20.25;12.27;;;14.30;78.70;;;;;;4851477;29;20022;-70
2021/08/23 08:44:23;;;;;;;18.73;12.80;;;14.30;79.10;;;;;;4850390;29;20386;-70
2021/08/23 08:46:50;;;;;;;18.15;11.00;;;14.40;79.50;;;;;;4854876;29;20024;-70
2021/08/23 08:49:18;;;;;;;19.80;12.73;;;14.40;79.90;;;;;;4853328;29;20030;-70
2021/08/23 08:51:46;;;;;;;18.80;11.40;;;14.50;80.30;;;;;;4853956;29;20042;-70
2021/08/23 08:54:12;;;;;;;21.98;13.23;;;14.50;80.50;;;;;;4854368;29;20053;-70
2021/08/23 08:56:39;;;;;;;17.90;12.00;;;14.60;81.30;;;;;;4853172;29;20120;-70
2021/08/23 08:59:06;;;;;;;19.63;11.55;;;14.60;80.80;;;;;;4854602;29;20034;-70
2021/08/23 09:01:33;;;;;;;15.70;9.88;;;14.70;80.90;;;;;;4853247;29;20096;-70
2021/08/23 09:04:04;;;;;;;14.75;9.90;;;14.80;80.90;;;;;;4852338;29;20522;-69
2021/08/23 09:06:42;;;;;;;11.20;7.40;;;14.80;80.90;;;;;;4850465;29;20030;-70
2021/08/23 09:09:13;;;;;;;17.77;7.80;;;14.90;80.90;;;;;;4851407;29;20469;-70
2021/08/23 09:11:55;;;;;;;12.82;7.05;;;14.90;80.70;;;;;;4852148;29;20041;-70
2021/08/23 09:14:21;;;;;;;13.10;6.20;;;15.00;80.60;;;;;;4856696;29;20105;-70
2021/08/23 09:16:48;;;;;;;14.60;6.55;;;15.10;80.30;;;;;;4855250;29;20033;-70
2021/08/23 09:19:26;;;;;;;10.85;6.65;;;15.10;80.00;;;;;;4849924;29;20022;-70
2021/08/23 09:22:38;;;;;;;8.25;5.75;;;15.10;79.60;;;;;;4852802;29;20485;-70
2021/08/23 09:25:47;;;;;;;17.58;6.43;;;15.20;79.30;;;;;;4855267;29;20030;-70
2021/08/23 09:28:53;;;;;;;12.40;5.47;;;15.30;79.10;;;;;;4848890;29;20029;-70
2021/08/23 09:31:59;;;;;;;7.60;4.95;;;15.30;78.70;;;;;;4852298;29;20497;-72
2021/08/23 09:35:05;;;;;;;10.50;4.53;;;15.40;78.40;;;;;;4854037;29;20401;-70
2021/08/23 09:38:11;;;;;;;8.77;5.70;;;15.50;78.00;;;;;;4852770;29;20053;-69
2021/08/23 09:41:17;;;;;;;8.48;4.72;;;15.50;77.70;;;;;;4853779;29;20162;-69
2021/08/23 09:44:26;;;;;;;11.35;5.00;;;15.60;77.50;;;;;;4850316;29;20413;-69
2021/08/23 09:47:32;;;;;;;11.30;4.82;;;15.60;77.20;;;;;;4850155;29;20036;-69
2021/08/23 09:50:38;;;;;;;7.10;4.88;;;15.70;77.00;;;;;;4848640;29;20330;-69
2021/08/23 09:53:47;;;;;;;9.43;4.72;;;15.80;76.70;;;;;;4854035;29;20112;-69
2021/08/23 09:56:53;;;;;;;15.15;5.80;;;15.80;76.60;;;;;;4853886;29;20030;-69
2021/08/23 09:59:59;;;;;;;8.80;4.10;;;15.90;76.70;;;;;;4854817;29;20033;-69
2021/08/23 10:03:13;;;;;;;11.70;6.10;;;16.00;76.30;;;;;;4867422;29;20041;-69
2021/08/23 10:06:19;;;;;;;12.93;4.60;;;16.00;75.90;;;;;;4873460;29;20048;-69
2021/08/23 10:09:26;;;;;;;12.10;4.57;;;16.10;76.00;;;;;;4871678;29;20041;-69
2021/08/23 10:12:32;;;;;;;9.02;3.88;;;16.20;75.70;;;;;;4873412;29;20058;-70
2021/08/23 10:15:38;;;;;;;8.60;4.60;;;16.20;75.50;;;;;;4873635;29;20033;-70
2021/08/23 10:18:24;;;;;;;;;;;16.30;75.50;;;;;;4875559;29;20029;-69
2021/08/23 10:21:30;;;;;;;10.50;4.50;;;16.40;75.30;;;;;;4876700;29;20024;-69
2021/08/23 10:24:38;;;;;;;10.32;6.28;;;16.40;74.90;;;;;;4872988;29;20021;-69
2021/08/23 10:27:44;;;;;;;8.70;4.07;;;16.50;74.80;;;;;;4875011;29;20060;-69
2021/08/23 10:30:50;;;;;;;11.52;4.95;;;16.50;74.90;;;;;;4872806;29;20125;-69
2021/08/23 10:33:56;;;;;;;8.27;4.28;;;16.60;74.70;;;;;;4872776;29;20082;-69
2021/08/23 10:37:03;;;;;;;7.95;4.57;;;16.70;74.50;;;;;;4871526;29;20207;-69
2021/08/23 10:40:21;;;;;;;11.18;4.47;;;16.80;74.80;;;;;;4872866;29;20396;-69
2021/08/23 10:43:33;;;;;;;14.80;4.70;;;16.80;74.20;;;;;;4872302;29;20553;-69
2021/08/23 10:46:39;;;;;;;9.57;3.90;;;16.90;73.90;;;;;;4871752;29;20025;-69
2021/08/23 10:49:46;;;;;;;10.02;3.97;;;17.00;73.90;;;;;;4873130;29;20045;-69
2021/08/23 10:52:57;;;;;;;18.60;6.22;;;17.10;73.80;;;;;;4874894;29;20032;-69
2021/08/23 10:56:06;;;;;;;59.03;10.70;;;17.10;73.30;;;;;;4872079;29;20037;-69
2021/08/23 10:59:12;;;;;;;14.57;4.38;;;17.20;73.40;;;;;;4874553;29;20033;-69
2021/08/23 11:02:18;;;;;;;27.08;8.02;;;17.30;73.80;;;;;;4871490;29;20092;-69
2021/08/23 11:05:34;;;;;;;64.55;8.35;;;17.40;73.60;;;;;;4872916;29;20549;-69
2021/08/23 11:08:42;;;;;;;25.65;5.57;;;17.50;73.10;;;;;;4872748;29;20101;-70
2021/08/23 11:11:51;;;;;;;16.17;4.82;;;17.50;72.80;;;;;;4874003;29;20080;-69
2021/08/23 11:14:43;;;;;;;16.50;4.53;;;17.60;72.30;;;;;;4874022;29;20036;-69
2021/08/23 11:17:30;;;;;;;18.02;4.25;;;17.60;72.40;;;;;;4870745;29;20035;-70
2021/08/23 11:20:36;;;;;;;6.82;2.97;;;17.60;72.10;;;;;;4870948;29;20013;-70
2021/08/23 11:23:44;;;;;;;8.70;3.58;;;17.70;71.90;;;;;;4870374;29;20496;-70
2021/08/23 11:26:50;;;;;;;9.90;3.15;;;17.70;71.20;;;;;;4873793;29;20025;-69
2021/08/23 11:29:57;;;;;;;4.15;2.67;;;17.80;71.20;;;;;;4872473;29;20028;-70
2021/08/23 11:33:06;;;;;;;12.45;4.63;;;17.80;70.50;;;;;;4872307;29;20025;-69
2021/08/23 11:36:12;;;;;;;6.03;2.75;;;17.90;70.50;;;;;;4871545;29;20039;-70
2021/08/23 11:39:18;;;;;;;6.65;2.95;;;17.90;70.40;;;;;;4873000;29;20077;-69
2021/08/23 11:42:27;;;;;;;10.23;4.30;;;17.90;70.00;;;;;;4876143;29;20072;-69
2021/08/23 11:45:33;;;;;;;6.97;3.92;;;18.00;70.60;;;;;;4873501;29;20492;-69
2021/08/23 11:48:39;;;;;;;10.57;2.90;;;18.00;70.40;;;;;;4873007;29;20418;-69
2021/08/23 11:51:47;;;;;;;8.23;3.33;;;18.00;70.70;;;;;;4870675;29;20041;-69
2021/08/23 11:54:54;;;;;;;4.68;2.67;;;18.10;71.00;;;;;;4873338;29;20120;-69
2021/08/23 11:58:00;;;;;;;9.65;4.85;;;18.10;70.30;;;;;;4869747;29;20117;-69
2021/08/23 12:01:06;;;;;;;8.52;4.22;;;18.20;70.70;;;;;;4871509;29;20032;-69
2021/08/23 12:04:18;;;;;;;12.93;3.42;;;18.20;71.20;;;;;;4852923;29;20033;-69
2021/08/23 12:07:24;;;;;;;7.35;3.45;;;18.30;71.30;;;;;;4853725;29;20083;-69
2021/08/23 12:10:30;;;;;;;13.00;5.60;;;18.40;71.60;;;;;;4856325;29;20029;-69
2021/08/23 12:13:54;;;;;;;21.45;4.40;;;18.40;71.40;;;;;;4851252;29;20033;-69
2021/08/23 12:17:12;;;;;;;13.27;3.55;;;18.50;71.70;;;;;;4854501;29;20034;-69
2021/08/23 12:20:21;;;;;;;6.25;3.75;;;18.50;71.60;;;;;;4850972;29;20475;-70
2021/08/23 12:23:27;;;;;;;20.60;5.28;;;18.60;72.00;;;;;;4851646;29;20030;-69
2021/08/23 12:26:34;;;;;;;12.50;2.75;;;18.60;71.80;;;;;;4853002;29;20090;-69
2021/08/23 12:29:46;;;;;;;15.80;4.38;;;18.60;71.40;;;;;;4852776;29;20034;-69
2021/08/23 12:32:54;;;;;;;5.65;2.38;;;18.70;71.80;;;;;;4849742;29;20124;-69
2021/08/23 12:36:16;;;;;;;5.57;2.22;;;18.70;71.80;;;;;;4845080;29;20034;-69
2021/08/23 12:39:35;;;;;;;4.32;1.98;;;18.70;71.80;;;;;;4849333;29;20025;-69
2021/08/23 12:42:44;;;;;;;7.13;1.60;;;18.60;72.70;;;;;;4850620;29;20029;-69
2021/08/23 12:45:55;;;;;;;9.10;3.05;;;18.70;72.40;;;;;;4844944;29;20034;-69
2021/08/23 12:49:07;;;;;;;4.38;2.08;;;18.70;72.30;;;;;;4848454;29;20415;-69
2021/08/23 12:52:13;;;;;;;3.63;1.50;;;18.70;72.40;;;;;;4849768;29;20045;-69
2021/08/23 12:55:20;;;;;;;5.45;1.83;;;18.80;72.60;;;;;;4849782;29;20033;-69
2021/08/23 12:57:49;;;;;;;3.55;1.60;;;18.70;72.50;;;;;;4850922;29;20056;-70
2021/08/23 13:00:17;;;;;;;3.70;1.60;;;18.80;72.70;;;;;;4851488;29;20022;-70
2021/08/23 13:02:47;;;;;;;2.88;1.65;;;18.80;73.00;;;;;;4848601;29;20410;-70
2021/08/23 13:05:15;;;;;;;4.97;2.00;;;18.80;73.10;;;;;;4847239;29;20038;-69
2021/08/23 13:07:42;;;;;;;4.75;1.45;;;18.80;72.90;;;;;;4852990;29;20467;-69
2021/08/23 13:10:12;;;;;;;4.25;0.90;;;18.80;73.10;;;;;;4848834;29;20033;-69
2021/08/23 13:12:44;;;;;;;3.10;1.33;;;18.90;72.90;;;;;;4848553;29;20040;-69
2021/08/23 13:15:15;;;;;;;3.42;1.50;;;18.90;73.10;;;;;;4852958;29;20038;-69
2021/08/23 13:17:41;;;;;;;5.25;1.92;;;18.90;73.00;;;;;;4849975;29;20072;-69
2021/08/23 13:20:24;;;;;;;3.22;1.60;;;18.90;72.70;;;;;;4847467;29;20078;-70
2021/08/23 13:22:53;;;;;;;2.72;1.02;;;18.90;72.60;;;;;;4850093;29;20034;-69
2021/08/23 13:25:21;;;;;;;4.70;1.20;;;18.90;72.90;;;;;;4849449;29;20041;-69
2021/08/23 13:27:47;;;;;;;3.97;1.25;;;18.90;72.70;;;;;;4849692;29;20523;-70